sensor_id;sensor_type;location;lat;lon;timestamp;pressure;altitude;pressure_sealevel;temperature;humidity
64753;BME280;61095;52.454;16.948;2022-08-21T02:04:33;100157.19;;;19.47;75.99
64753;BME280;61095;52.454;16.948;2022-08-21T02:09:31;100157.91;;;19.49;75.92
64753;BME280;61095;52.454;16.948;2022-08-21T02:14:30;100155.34;;;19.47;75.72
64753;BME280;61095;52.454;16.948;2022-08-21T02:19:29;100149.16;;;19.47;76.08
64753;BME280;61095;52.454;16.948;2022-08-21T02:24:29;100150.97;;;19.46;75.90
64753;BME280;61095;52.454;16.948;2022-08-21T02:29:27;100142.94;;;19.46;75.55
64753;BME280;61095;52.454;16.948;2022-08-21T02:34:26;100139.41;;;19.46;75.91
64753;BME280;61095;52.454;16.948;2022-08-21T02:39:24;100132.81;;;19.39;75.76
64753;BME280;61095;52.454;16.948;2022-08-21T02:44:25;100127.69;;;19.35;76.25
64753;BME280;61095;52.454;16.948;2022-08-21T02:49:23;100135.69;;;19.35;76.10
64753;BME280;61095;52.454;16.948;2022-08-21T02:54:22;100132.50;;;19.30;75.62
64753;BME280;61095;52.454;16.948;2022-08-21T02:59:20;100122.16;;;19.26;76.06
64753;BME280;61095;52.454;16.948;2022-08-21T03:04:20;100133.94;;;19.23;75.79
64753;BME280;61095;52.454;16.948;2022-08-21T03:09:19;100132.44;;;19.19;75.78
64753;BME280;61095;52.454;16.948;2022-08-21T03:14:18;100135.34;;;19.16;75.98
64753;BME280;61095;52.454;16.948;2022-08-21T03:19:16;100137.38;;;19.13;75.70
64753;BME280;61095;52.454;16.948;2022-08-21T03:24:16;100139.09;;;19.14;75.73
64753;BME280;61095;52.454;16.948;2022-08-21T03:29:15;100139.28;;;19.11;75.65
64753;BME280;61095;52.454;16.948;2022-08-21T03:34:13;100146.56;;;19.09;75.79
64753;BME280;61095;52.454;16.948;2022-08-21T03:39:12;100151.91;;;19.09;75.66
64753;BME280;61095;52.454;16.948;2022-08-21T03:44:12;100149.44;;;19.05;76.34
64753;BME280;61095;52.454;16.948;2022-08-21T03:49:10;100160.16;;;19.05;76.01
64753;BME280;61095;52.454;16.948;2022-08-21T03:54:09;100170.31;;;19.00;76.54
64753;BME280;61095;52.454;16.948;2022-08-21T03:59:07;100173.09;;;18.99;76.30
64753;BME280;61095;52.454;16.948;2022-08-21T04:04:07;100193.75;;;18.97;76.27
64753;BME280;61095;52.454;16.948;2022-08-21T04:09:06;100195.47;;;18.98;76.31
64753;BME280;61095;52.454;16.948;2022-08-21T04:14:05;100202.72;;;18.96;77.00
64753;BME280;61095;52.454;16.948;2022-08-21T04:19:04;100197.28;;;18.97;76.68
64753;BME280;61095;52.454;16.948;2022-08-21T04:24:04;100209.78;;;18.97;77.05
64753;BME280;61095;52.454;16.948;2022-08-21T04:29:04;100204.34;;;18.98;76.87
64753;BME280;61095;52.454;16.948;2022-08-21T04:34:04;100207.00;;;18.98;76.62
64753;BME280;61095;52.454;16.948;2022-08-21T04:39:04;100206.25;;;18.96;76.57
64753;BME280;61095;52.454;16.948;2022-08-21T04:44:03;100214.19;;;18.98;76.97
64753;BME280;61095;52.454;16.948;2022-08-21T04:49:01;100224.97;;;18.96;76.64
64753;BME280;61095;52.454;16.948;2022-08-21T04:54:06;100225.19;;;18.93;77.00
64753;BME280;61095;52.454;16.948;2022-08-21T04:59:13;100226.16;;;18.92;76.82
64753;BME280;61095;52.454;16.948;2022-08-21T05:04:16;100222.63;;;18.92;77.30
64753;BME280;61095;52.454;16.948;2022-08-21T05:09:18;100218.25;;;18.91;77.10
64753;BME280;61095;52.454;16.948;2022-08-21T05:14:17;100224.56;;;18.90;77.31
64753;BME280;61095;52.454;16.948;2022-08-21T05:19:16;100227.34;;;18.88;77.31
64753;BME280;61095;52.454;16.948;2022-08-21T05:24:17;100236.22;;;18.89;77.04
64753;BME280;61095;52.454;16.948;2022-08-21T05:29:16;100238.03;;;18.88;77.30
64753;BME280;61095;52.454;16.948;2022-08-21T05:34:18;100238.34;;;18.84;78.18
64753;BME280;61095;52.454;16.948;2022-08-21T05:39:18;100231.81;;;18.88;78.19
64753;BME280;61095;52.454;16.948;2022-08-21T05:44:17;100223.69;;;18.89;78.06
64753;BME280;61095;52.454;16.948;2022-08-21T05:49:15;100222.53;;;18.93;77.53
64753;BME280;61095;52.454;16.948;2022-08-21T05:54:14;100221.56;;;18.94;77.49
64753;BME280;61095;52.454;16.948;2022-08-21T05:59:14;100225.09;;;18.95;78.00
64753;BME280;61095;52.454;16.948;2022-08-21T06:04:12;100212.69;;;18.94;78.05
64753;BME280;61095;52.454;16.948;2022-08-21T06:09:11;100217.06;;;18.95;78.18
64753;BME280;61095;52.454;16.948;2022-08-21T06:14:10;100199.84;;;18.99;78.13
64753;BME280;61095;52.454;16.948;2022-08-21T06:19:13;100192.56;;;19.01;78.13
64753;BME280;61095;52.454;16.948;2022-08-21T06:24:11;100187.63;;;19.08;78.17
64753;BME280;61095;52.454;16.948;2022-08-21T06:29:10;100184.97;;;19.08;77.87
64753;BME280;61095;52.454;16.948;2022-08-21T06:34:10;100173.13;;;19.12;78.25
64753;BME280;61095;52.454;16.948;2022-08-21T06:39:09;100184.75;;;19.11;78.41
64753;BME280;61095;52.454;16.948;2022-08-21T06:44:08;100187.13;;;19.15;77.90
64753;BME280;61095;52.454;16.948;2022-08-21T06:49:07;100209.25;;;19.17;78.31
64753;BME280;61095;52.454;16.948;2022-08-21T06:54:05;100215.47;;;19.18;78.13
64753;BME280;61095;52.454;16.948;2022-08-21T06:59:06;100225.00;;;19.22;77.67
64753;BME280;61095;52.454;16.948;2022-08-21T07:04:04;100233.88;;;19.22;77.85
64753;BME280;61095;52.454;16.948;2022-08-21T07:09:03;100244.69;;;19.21;77.99
64753;BME280;61095;52.454;16.948;2022-08-21T07:14:01;100248.31;;;19.20;78.00
64753;BME280;61095;52.454;16.948;2022-08-21T07:19:01;100253.03;;;19.16;77.58
64753;BME280;61095;52.454;16.948;2022-08-21T07:24:00;100239.75;;;19.15;77.48
64753;BME280;61095;52.454;16.948;2022-08-21T07:28:58;100243.41;;;19.14;77.24
64753;BME280;61095;52.454;16.948;2022-08-21T07:33:57;100243.28;;;19.15;77.40
64753;BME280;61095;52.454;16.948;2022-08-21T07:38:57;100241.81;;;19.11;76.96
64753;BME280;61095;52.454;16.948;2022-08-21T07:43:56;100225.53;;;19.14;77.23
64753;BME280;61095;52.454;16.948;2022-08-21T07:48:56;100233.22;;;19.19;76.78
64753;BME280;61095;52.454;16.948;2022-08-21T07:53:57;100236.88;;;19.18;76.79
64753;BME280;61095;52.454;16.948;2022-08-21T07:58:56;100246.59;;;19.19;76.71
64753;BME280;61095;52.454;16.948;2022-08-21T08:03:55;100235.69;;;19.22;77.18
64753;BME280;61095;52.454;16.948;2022-08-21T08:08:54;100240.72;;;19.26;77.17
64753;BME280;61095;52.454;16.948;2022-08-21T08:13:54;100238.56;;;19.31;76.61
64753;BME280;61095;52.454;16.948;2022-08-21T08:18:54;100242.81;;;19.47;76.58
64753;BME280;61095;52.454;16.948;2022-08-21T08:23:53;100246.00;;;19.52;76.30
64753;BME280;61095;52.454;16.948;2022-08-21T08:28:51;100261.13;;;19.53;76.40
64753;BME280;61095;52.454;16.948;2022-08-21T08:33:51;100257.69;;;19.51;76.45
64753;BME280;61095;52.454;16.948;2022-08-21T08:38:50;100259.19;;;19.55;76.74
64753;BME280;61095;52.454;16.948;2022-08-21T08:43:50;100278.78;;;19.55;76.41
64753;BME280;61095;52.454;16.948;2022-08-21T08:48:55;100275.25;;;19.55;76.27
64753;BME280;61095;52.454;16.948;2022-08-21T08:53:59;100256.53;;;19.55;75.76
64753;BME280;61095;52.454;16.948;2022-08-21T08:59:07;100248.59;;;19.66;75.74
64753;BME280;61095;52.454;16.948;2022-08-21T09:04:12;100254.81;;;19.66;75.83
64753;BME280;61095;52.454;16.948;2022-08-21T09:09:24;100269.06;;;19.67;75.98
64753;BME280;61095;52.454;16.948;2022-08-21T09:14:38;100270.53;;;19.71;75.78
64753;BME280;61095;52.454;16.948;2022-08-21T09:19:50;100271.63;;;19.69;75.90
64753;BME280;61095;52.454;16.948;2022-08-21T09:25:02;100268.09;;;19.68;75.66
64753;BME280;61095;52.454;16.948;2022-08-21T09:30:07;100272.47;;;19.69;76.15
64753;BME280;61095;52.454;16.948;2022-08-21T09:35:10;100273.22;;;19.71;75.94
64753;BME280;61095;52.454;16.948;2022-08-21T09:40:20;100286.50;;;19.73;75.52
64753;BME280;61095;52.454;16.948;2022-08-21T09:45:19;100283.38;;;19.79;75.83
64753;BME280;61095;52.454;16.948;2022-08-21T09:50:22;100277.91;;;19.80;75.86
64753;BME280;61095;52.454;16.948;2022-08-21T09:55:31;100274.25;;;19.81;76.01
64753;BME280;61095;52.454;16.948;2022-08-21T10:00:58;100275.13;;;19.82;76.06
64753;BME280;61095;52.454;16.948;2022-08-21T10:06:00;100268.69;;;19.84;75.93
64753;BME280;61095;52.454;16.948;2022-08-21T10:11:02;100281.00;;;19.87;75.98
64753;BME280;61095;52.454;16.948;2022-08-21T10:16:11;100302.28;;;19.88;75.96
64753;BME280;61095;52.454;16.948;2022-08-21T10:21:18;100300.47;;;19.89;75.79
64753;BME280;61095;52.454;16.948;2022-08-21T10:26:29;100300.69;;;19.86;75.76
64753;BME280;61095;52.454;16.948;2022-08-21T10:31:39;100292.44;;;19.89;75.71
64753;BME280;61095;52.454;16.948;2022-08-21T10:36:46;100297.78;;;19.89;76.00
64753;BME280;61095;52.454;16.948;2022-08-21T10:42:15;100291.81;;;19.85;76.17
64753;BME280;61095;52.454;16.948;2022-08-21T10:47:19;100287.94;;;19.89;76.17
64753;BME280;61095;52.454;16.948;2022-08-21T10:52:44;100270.78;;;19.92;76.31
64753;BME280;61095;52.454;16.948;2022-08-21T10:57:49;100270.56;;;19.95;76.29
64753;BME280;61095;52.454;16.948;2022-08-21T11:02:53;100279.47;;;19.95;76.33
64753;BME280;61095;52.454;16.948;2022-08-21T11:08:01;100280.09;;;19.99;76.52
64753;BME280;61095;52.454;16.948;2022-08-21T11:13:03;100269.03;;;20.04;76.45
64753;BME280;61095;52.454;16.948;2022-08-21T11:18:15;100260.88;;;20.05;76.08
64753;BME280;61095;52.454;16.948;2022-08-21T11:23:21;100259.16;;;20.04;75.98
64753;BME280;61095;52.454;16.948;2022-08-21T11:28:25;100264.22;;;20.09;75.88
64753;BME280;61095;52.454;16.948;2022-08-21T11:33:35;100258.75;;;20.10;76.03
64753;BME280;61095;52.454;16.948;2022-08-21T11:38:44;100256.47;;;20.17;76.11
64753;BME280;61095;52.454;16.948;2022-08-21T11:43:46;100240.16;;;20.20;76.21
64753;BME280;61095;52.454;16.948;2022-08-21T11:48:53;100228.13;;;20.25;76.19
64753;BME280;61095;52.454;16.948;2022-08-21T11:54:03;100212.16;;;20.24;76.21
64753;BME280;61095;52.454;16.948;2022-08-21T11:59:08;100230.19;;;20.22;76.00
64753;BME280;61095;52.454;16.948;2022-08-21T12:04:15;100240.56;;;20.26;75.63
64753;BME280;61095;52.454;16.948;2022-08-21T12:09:31;100254.28;;;20.22;75.44
64753;BME280;61095;52.454;16.948;2022-08-21T12:14:40;100256.97;;;20.22;75.60
64753;BME280;61095;52.454;16.948;2022-08-21T12:19:39;100256.50;;;20.28;74.96
64753;BME280;61095;52.454;16.948;2022-08-21T12:24:42;100273.78;;;20.24;74.89
64753;BME280;61095;52.454;16.948;2022-08-21T12:29:47;100273.06;;;20.22;74.49
64753;BME280;61095;52.454;16.948;2022-08-21T12:34:48;100285.94;;;20.17;74.33
64753;BME280;61095;52.454;16.948;2022-08-21T12:39:52;100278.34;;;20.11;73.50
64753;BME280;61095;52.454;16.948;2022-08-21T12:44:55;100286.06;;;20.03;73.77
64753;BME280;61095;52.454;16.948;2022-08-21T12:50:00;100280.09;;;19.99;73.59
64753;BME280;61095;52.454;16.948;2022-08-21T12:55:02;100290.81;;;19.99;73.71
64753;BME280;61095;52.454;16.948;2022-08-21T13:00:06;100295.53;;;19.95;73.45
64753;BME280;61095;52.454;16.948;2022-08-21T13:05:11;100293.94;;;19.93;73.92
64753;BME280;61095;52.454;16.948;2022-08-21T13:10:18;100295.97;;;19.89;73.89
64753;BME280;61095;52.454;16.948;2022-08-21T13:15:25;100295.75;;;19.92;73.58
64753;BME280;61095;52.454;16.948;2022-08-21T13:20:28;100291.25;;;19.93;73.93
64753;BME280;61095;52.454;16.948;2022-08-21T13:25:30;100296.72;;;19.91;74.29
64753;BME280;61095;52.454;16.948;2022-08-21T13:30:32;100306.56;;;19.91;74.38
64753;BME280;61095;52.454;16.948;2022-08-21T13:35:36;100311.19;;;19.89;74.66
64753;BME280;61095;52.454;16.948;2022-08-21T13:40:44;100321.25;;;19.85;73.60
64753;BME280;61095;52.454;16.948;2022-08-21T13:45:48;100327.19;;;19.78;72.94
64753;BME280;61095;52.454;16.948;2022-08-21T13:50:47;100324.75;;;19.62;72.47
64753;BME280;61095;52.454;16.948;2022-08-21T13:55:47;100329.31;;;19.47;71.59
64753;BME280;61095;52.454;16.948;2022-08-21T14:00:48;100326.53;;;19.36;71.55
64753;BME280;61095;52.454;16.948;2022-08-21T14:05:47;100336.38;;;19.23;71.94
64753;BME280;61095;52.454;16.948;2022-08-21T14:10:50;100340.34;;;19.17;72.08
64753;BME280;61095;52.454;16.948;2022-08-21T14:15:56;100342.66;;;19.09;72.33
64753;BME280;61095;52.454;16.948;2022-08-21T14:21:03;100336.00;;;19.02;72.21
64753;BME280;61095;52.454;16.948;2022-08-21T14:26:06;100359.63;;;18.95;73.32
64753;BME280;61095;52.454;16.948;2022-08-21T14:31:14;100357.28;;;18.91;73.59
64753;BME280;61095;52.454;16.948;2022-08-21T14:36:13;100365.31;;;18.91;73.61
64753;BME280;61095;52.454;16.948;2022-08-21T14:41:17;100384.03;;;18.91;73.36
64753;BME280;61095;52.454;16.948;2022-08-21T14:46:21;100383.47;;;18.86;73.54
64753;BME280;61095;52.454;16.948;2022-08-21T14:51:21;100377.28;;;18.85;73.51
64753;BME280;61095;52.454;16.948;2022-08-21T14:56:21;100379.19;;;18.83;73.38
64753;BME280;61095;52.454;16.948;2022-08-21T15:01:22;100383.69;;;18.83;73.77
64753;BME280;61095;52.454;16.948;2022-08-21T15:06:23;100387.41;;;18.80;72.77
64753;BME280;61095;52.454;16.948;2022-08-21T15:11:26;100389.53;;;18.75;72.65
64753;BME280;61095;52.454;16.948;2022-08-21T15:16:24;100393.53;;;18.68;73.02
64753;BME280;61095;52.454;16.948;2022-08-21T15:21:23;100393.53;;;18.68;72.85
64753;BME280;61095;52.454;16.948;2022-08-21T15:26:24;100395.47;;;18.66;72.89
64753;BME280;61095;52.454;16.948;2022-08-21T15:31:26;100391.94;;;18.65;72.93
64753;BME280;61095;52.454;16.948;2022-08-21T15:36:25;100388.31;;;18.66;73.07
64753;BME280;61095;52.454;16.948;2022-08-21T15:41:24;100388.56;;;18.62;72.17
64753;BME280;61095;52.454;16.948;2022-08-21T15:46:23;100389.44;;;18.62;72.46
64753;BME280;61095;52.454;16.948;2022-08-21T15:51:21;100391.34;;;18.60;72.17
64753;BME280;61095;52.454;16.948;2022-08-21T15:56:23;100394.13;;;18.59;72.08
64753;BME280;61095;52.454;16.948;2022-08-21T16:01:23;100394.31;;;18.56;72.74
64753;BME280;61095;52.454;16.948;2022-08-21T16:06:22;100394.44;;;18.54;72.15
64753;BME280;61095;52.454;16.948;2022-08-21T16:11:22;100400.94;;;18.50;72.66
64753;BME280;61095;52.454;16.948;2022-08-21T16:16:34;100396.00;;;18.44;72.44
64753;BME280;61095;52.454;16.948;2022-08-21T16:21:34;100388.84;;;18.45;72.65
64753;BME280;61095;52.454;16.948;2022-08-21T16:26:33;100391.59;;;18.43;72.02
64753;BME280;61095;52.454;16.948;2022-08-21T16:31:33;100389.13;;;18.40;71.83
64753;BME280;61095;52.454;16.948;2022-08-21T16:36:35;100392.66;;;18.40;71.39
64753;BME280;61095;52.454;16.948;2022-08-21T16:41:37;100394.97;;;18.32;72.28
64753;BME280;61095;52.454;16.948;2022-08-21T16:46:39;100384.50;;;18.29;71.76
64753;BME280;61095;52.454;16.948;2022-08-21T16:51:39;100388.41;;;18.24;72.00
64753;BME280;61095;52.454;16.948;2022-08-21T16:56:38;100391.00;;;18.25;71.76
64753;BME280;61095;52.454;16.948;2022-08-21T17:01:38;100405.59;;;18.20;72.09
64753;BME280;61095;52.454;16.948;2022-08-21T17:06:37;100398.63;;;18.17;71.97
64753;BME280;61095;52.454;16.948;2022-08-21T17:11:38;100400.44;;;18.02;72.61
64753;BME280;61095;52.454;16.948;2022-08-21T17:16:42;100410.66;;;17.96;73.20
64753;BME280;61095;52.454;16.948;2022-08-21T17:21:41;100406.38;;;17.93;73.46
64753;BME280;61095;52.454;16.948;2022-08-21T17:26:40;100413.72;;;17.90;73.66
64753;BME280;61095;52.454;16.948;2022-08-21T17:31:41;100412.94;;;17.88;74.08
64753;BME280;61095;52.454;16.948;2022-08-21T17:36:41;100421.91;;;17.87;74.67
64753;BME280;61095;52.454;16.948;2022-08-21T17:41:40;100413.28;;;17.82;75.22
64753;BME280;61095;52.454;16.948;2022-08-21T17:46:40;100424.06;;;17.80;75.13
64753;BME280;61095;52.454;16.948;2022-08-21T17:51:39;100433.78;;;17.81;75.86
64753;BME280;61095;52.454;16.948;2022-08-21T17:56:40;100429.31;;;17.82;75.67
64753;BME280;61095;52.454;16.948;2022-08-21T18:01:42;100437.16;;;17.85;75.94
64753;BME280;61095;52.454;16.948;2022-08-21T18:06:43;100437.41;;;17.80;75.74
64753;BME280;61095;52.454;16.948;2022-08-21T18:11:42;100438.13;;;17.84;75.92
64753;BME280;61095;52.454;16.948;2022-08-21T18:16:42;100442.59;;;17.83;75.43
64753;BME280;61095;52.454;16.948;2022-08-21T18:21:41;100446.84;;;17.71;75.58
64753;BME280;61095;52.454;16.948;2022-08-21T18:26:40;100434.91;;;17.63;75.77
64753;BME280;61095;52.454;16.948;2022-08-21T18:31:40;100443.09;;;17.60;75.02
64753;BME280;61095;52.454;16.948;2022-08-21T18:36:41;100438.31;;;17.51;74.68
64753;BME280;61095;52.454;16.948;2022-08-21T18:41:39;100447.06;;;17.38;74.12
64753;BME280;61095;52.454;16.948;2022-08-21T18:46:38;100441.22;;;17.32;74.22
64753;BME280;61095;52.454;16.948;2022-08-21T18:51:37;100445.03;;;17.28;74.12
64753;BME280;61095;52.454;16.948;2022-08-21T18:56:37;100448.94;;;17.22;73.70
64753;BME280;61095;52.454;16.948;2022-08-21T19:01:36;100444.78;;;17.16;73.61
64753;BME280;61095;52.454;16.948;2022-08-21T19:06:35;100447.63;;;17.13;74.06
64753;BME280;61095;52.454;16.948;2022-08-21T19:11:34;100437.25;;;17.09;73.61
64753;BME280;61095;52.454;16.948;2022-08-21T19:16:37;100441.31;;;17.00;73.74
64753;BME280;61095;52.454;16.948;2022-08-21T19:21:37;100442.94;;;17.03;73.81
64753;BME280;61095;52.454;16.948;2022-08-21T19:26:35;100438.63;;;17.00;74.16
64753;BME280;61095;52.454;16.948;2022-08-21T19:31:39;100431.84;;;16.95;74.51
64753;BME280;61095;52.454;16.948;2022-08-21T19:36:38;100431.94;;;16.93;74.71
64753;BME280;61095;52.454;16.948;2022-08-21T19:41:42;100436.56;;;16.90;74.53
64753;BME280;61095;52.454;16.948;2022-08-21T19:46:44;100443.63;;;16.91;74.57
64753;BME280;61095;52.454;16.948;2022-08-21T19:51:43;100433.91;;;16.90;74.44
64753;BME280;61095;52.454;16.948;2022-08-21T19:56:42;100435.97;;;16.84;74.73
64753;BME280;61095;52.454;16.948;2022-08-21T20:01:41;100438.81;;;16.81;74.98
64753;BME280;61095;52.454;16.948;2022-08-21T20:06:41;100443.38;;;16.79;75.41
64753;BME280;61095;52.454;16.948;2022-08-21T20:11:42;100438.22;;;16.76;75.70
64753;BME280;61095;52.454;16.948;2022-08-21T20:16:45;100431.00;;;16.78;75.59
64753;BME280;61095;52.454;16.948;2022-08-21T20:21:49;100431.88;;;16.79;76.06
64753;BME280;61095;52.454;16.948;2022-08-21T20:26:50;100438.06;;;16.79;75.98
64753;BME280;61095;52.454;16.948;2022-08-21T20:31:49;100430.66;;;16.84;76.10
64753;BME280;61095;52.454;16.948;2022-08-21T20:36:49;100434.09;;;16.86;76.16
64753;BME280;61095;52.454;16.948;2022-08-21T20:41:48;100429.53;;;16.89;75.68
64753;BME280;61095;52.454;16.948;2022-08-21T20:46:47;100437.38;;;16.92;75.97
64753;BME280;61095;52.454;16.948;2022-08-21T20:51:49;100429.38;;;16.92;75.52
64753;BME280;61095;52.454;16.948;2022-08-21T20:56:53;100424.09;;;16.90;75.73
64753;BME280;61095;52.454;16.948;2022-08-21T21:01:58;100421.28;;;16.93;75.39
64753;BME280;61095;52.454;16.948;2022-08-21T21:07:00;100427.63;;;16.91;75.43
64753;BME280;61095;52.454;16.948;2022-08-21T21:12:02;100431.25;;;16.90;75.41
64753;BME280;61095;52.454;16.948;2022-08-21T21:17:05;100437.38;;;16.92;75.35
64753;BME280;61095;52.454;16.948;2022-08-21T21:22:15;100450.84;;;16.89;75.27
64753;BME280;61095;52.454;16.948;2022-08-21T21:27:19;100451.63;;;16.91;74.86
64753;BME280;61095;52.454;16.948;2022-08-21T21:32:20;100447.94;;;16.93;75.23
64753;BME280;61095;52.454;16.948;2022-08-21T21:37:23;100457.66;;;16.94;74.53
64753;BME280;61095;52.454;16.948;2022-08-21T21:42:27;100443.38;;;16.95;74.69
64753;BME280;61095;52.454;16.948;2022-08-21T21:47:40;100446.81;;;16.97;74.50
